createdAt,value
2022-10-17T00:00:34.557Z,0
2022-10-17T00:02:40.100Z,0
2022-10-17T00:03:42.540Z,0
2022-10-17T00:05:47.819Z,0
2022-10-17T00:07:52.953Z,0
2022-10-17T00:09:58.422Z,0
2022-10-17T00:11:01.781Z,0
2022-10-17T00:13:06.745Z,0
2022-10-17T00:15:13.591Z,0
2022-10-17T00:16:17.123Z,0
2022-10-17T00:17:20.616Z,0
2022-10-17T00:18:23.713Z,0
2022-10-17T00:20:29.351Z,0
2022-10-17T00:23:37.500Z,0
2022-10-17T00:25:43.170Z,0
2022-10-17T00:27:49.741Z,0
2022-10-17T00:29:55.937Z,0
2022-10-17T00:30:59.082Z,0
2022-10-17T00:33:05.723Z,0
2022-10-17T00:35:12.215Z,0
2022-10-17T00:37:18.355Z,0
2022-10-17T00:38:21.414Z,0
2022-10-17T00:40:26.790Z,0
2022-10-17T00:42:33.399Z,0
2022-10-17T00:44:38.828Z,0
2022-10-17T00:45:41.534Z,0
2022-10-17T00:47:48.117Z,0
2022-10-17T00:49:54.378Z,0
2022-10-17T00:51:59.594Z,0
2022-10-17T00:53:02.410Z,0
2022-10-17T00:55:08.606Z,0
2022-10-17T00:57:14.991Z,0
2022-10-17T00:59:21.658Z,0
2022-10-17T01:00:24.485Z,0
2022-10-17T01:02:32.294Z,0
2022-10-17T01:04:38.286Z,0
2022-10-17T01:05:41.005Z,0
2022-10-17T01:06:44.345Z,0
2022-10-17T01:07:47.416Z,0
2022-10-17T01:09:52.721Z,0
2022-10-17T01:10:55.773Z,0
2022-10-17T01:13:01.526Z,0
2022-10-17T01:14:04.520Z,0
2022-10-17T01:16:10.553Z,0
2022-10-17T01:17:13.742Z,0
2022-10-17T01:18:17.488Z,0
2022-10-17T01:19:21.860Z,0
2022-10-17T01:21:27.138Z,0
2022-10-17T01:22:31.478Z,0
2022-10-17T01:24:37.712Z,0
2022-10-17T01:25:41.134Z,0
2022-10-17T01:26:44.584Z,0
2022-10-17T01:27:47.936Z,0
2022-10-17T01:29:53.783Z,0
2022-10-17T01:30:56.598Z,0
2022-10-17T01:33:03.385Z,0
2022-10-17T01:34:06.257Z,0
2022-10-17T01:36:13.818Z,0
2022-10-17T01:38:19.126Z,0
2022-10-17T01:39:22.399Z,0
2022-10-17T01:41:28.423Z,0
2022-10-17T01:43:36.025Z,0
2022-10-17T01:44:39.478Z,0
2022-10-17T01:46:45.786Z,0
2022-10-17T01:47:49.097Z,0
2022-10-17T01:48:52.756Z,0
2022-10-17T01:49:55.872Z,0
2022-10-17T01:52:01.910Z,0
2022-10-17T01:53:05.257Z,0
2022-10-17T01:55:11.083Z,0
2022-10-17T01:57:17.451Z,0
2022-10-17T01:58:20.231Z,0
2022-10-17T01:59:23.101Z,0
2022-10-17T02:00:26.085Z,0
2022-10-17T02:02:32.303Z,0
2022-10-17T02:03:35.373Z,0
2022-10-17T02:05:41.306Z,0
2022-10-17T02:07:47.941Z,0
2022-10-17T02:09:54.168Z,0
2022-10-17T02:10:57.367Z,0
2022-10-17T02:13:03.314Z,0
2022-10-17T02:15:10.210Z,0
2022-10-17T02:16:13.012Z,0
2022-10-17T02:18:18.591Z,0
2022-10-17T02:19:21.705Z,0
2022-10-17T02:21:27.555Z,0
2022-10-17T02:22:31.619Z,0
2022-10-17T02:24:38.021Z,0
2022-10-17T02:26:44.049Z,0
2022-10-17T02:27:46.476Z,0
2022-10-17T02:29:52.812Z,0
2022-10-17T02:31:58.119Z,0
2022-10-17T02:33:01.187Z,0
2022-10-17T02:35:06.717Z,0
2022-10-17T02:37:12.726Z,0
2022-10-17T02:39:19.963Z,0
2022-10-17T02:40:23.053Z,0
2022-10-17T02:42:31.367Z,0
2022-10-17T02:44:37.037Z,0
2022-10-17T02:46:41.910Z,0
2022-10-17T02:47:45.251Z,0
2022-10-17T02:49:50.594Z,0
2022-10-17T02:51:57.196Z,0
2022-10-17T02:53:00.276Z,0
2022-10-17T02:55:06.524Z,0
2022-10-17T02:57:12.178Z,0
2022-10-17T02:58:14.965Z,0
2022-10-17T03:00:21.634Z,0
2022-10-17T03:02:30.450Z,0
2022-10-17T03:04:35.826Z,0
2022-10-17T03:05:38.540Z,0
2022-10-17T03:07:43.761Z,0
2022-10-17T03:09:50.172Z,0
2022-10-17T03:11:56.569Z,0
2022-10-17T03:12:59.549Z,0
2022-10-17T03:15:05.084Z,0
2022-10-17T03:17:11.696Z,0
2022-10-17T03:19:18.215Z,0
2022-10-17T03:20:21.864Z,0
2022-10-17T03:22:29.025Z,0
2022-10-17T03:24:34.961Z,0
2022-10-17T03:26:42.651Z,0
2022-10-17T03:27:45.756Z,0
2022-10-17T03:28:56.366Z,0
2022-10-17T03:29:58.794Z,0
2022-10-17T03:32:04.741Z,0
2022-10-17T03:34:10.578Z,0
2022-10-17T03:35:17.161Z,0
2022-10-17T03:36:20.230Z,0
2022-10-17T03:37:23.321Z,0
2022-10-17T03:39:29.889Z,0
2022-10-17T03:40:33.295Z,0
2022-10-17T03:41:36.761Z,0
2022-10-17T03:42:40.415Z,0
2022-10-17T03:44:47.360Z,0
2022-10-17T03:46:52.492Z,0
2022-10-17T03:47:55.753Z,0
2022-10-17T03:50:02.026Z,0
2022-10-17T03:52:07.739Z,0
2022-10-17T03:54:13.139Z,0
2022-10-17T03:55:16.204Z,0
2022-10-17T03:57:23.472Z,0
2022-10-17T03:59:29.796Z,0
2022-10-17T04:01:36.969Z,0
2022-10-17T04:02:40.356Z,0
2022-10-17T04:04:46.591Z,0
2022-10-17T04:06:52.303Z,0
2022-10-17T04:08:58.785Z,0
2022-10-17T04:10:01.855Z,0
2022-10-17T04:12:08.493Z,0
2022-10-17T04:14:14.373Z,0
2022-10-17T04:16:21.229Z,0
2022-10-17T04:17:24.377Z,0
2022-10-17T04:19:29.889Z,0
2022-10-17T04:21:36.217Z,0
2022-10-17T04:23:42.176Z,0
2022-10-17T04:24:44.743Z,0
2022-10-17T04:26:50.624Z,0
2022-10-17T04:28:57.060Z,0
2022-10-17T04:31:03.018Z,0
2022-10-17T04:32:05.804Z,0
2022-10-17T04:34:10.911Z,0
2022-10-17T04:36:16.859Z,0
2022-10-17T04:38:30.311Z,0
2022-10-17T04:39:34.071Z,0
2022-10-17T04:41:39.593Z,0
2022-10-17T04:43:53.470Z,0
2022-10-17T04:45:59.481Z,0
2022-10-17T04:47:02.817Z,0
2022-10-17T04:48:05.613Z,0
2022-10-17T04:49:08.581Z,0
2022-10-17T04:51:15.415Z,0
2022-10-17T04:53:20.746Z,0
2022-10-17T04:54:24.095Z,0
2022-10-17T04:56:30.332Z,0
2022-10-17T04:58:36.672Z,0
2022-10-17T05:00:43.347Z,0
2022-10-17T05:01:46.984Z,0
2022-10-17T05:03:53.582Z,0
2022-10-17T05:06:00.474Z,0
2022-10-17T05:08:07.240Z,0
2022-10-17T05:09:10.391Z,0
2022-10-17T05:11:16.143Z,0
2022-10-17T05:13:22.716Z,0
2022-10-17T05:15:29.390Z,0
2022-10-17T05:16:33.133Z,0
2022-10-17T05:18:39.994Z,0
2022-10-17T05:20:45.564Z,0
2022-10-17T05:22:52.365Z,0
2022-10-17T05:23:56.051Z,0
2022-10-17T05:26:02.461Z,0
2022-10-17T05:28:08.097Z,0
2022-10-17T05:30:14.802Z,0
2022-10-17T05:31:18.089Z,0
2022-10-17T05:33:25.551Z,0
2022-10-17T05:35:31.427Z,1
2022-10-17T05:37:37.077Z,1
2022-10-17T05:38:40.418Z,1
2022-10-17T05:40:45.877Z,2
2022-10-17T05:42:51.706Z,2
2022-10-17T05:44:57.934Z,3
2022-10-17T05:46:01.292Z,3
2022-10-17T05:48:08.907Z,4
2022-10-17T05:49:53.314Z,4
2022-10-17T05:50:56.634Z,5
2022-10-17T05:53:02.872Z,6
2022-10-17T05:55:09.749Z,6
2022-10-17T05:57:15.451Z,7
2022-10-17T05:59:01.371Z,8
2022-10-17T06:00:05.242Z,9
2022-10-17T06:01:14.398Z,9
2022-10-17T06:02:18.507Z,10
2022-10-17T06:03:22.580Z,11
2022-10-17T06:05:28.181Z,12
2022-10-17T06:07:33.779Z,14
2022-10-17T06:08:36.848Z,15
2022-10-17T06:09:40.854Z,15
2022-10-17T06:10:43.431Z,16
2022-10-17T06:12:50.138Z,16
2022-10-17T06:14:56.426Z,17
2022-10-17T06:15:59.871Z,17
2022-10-17T06:17:02.286Z,17
2022-10-17T06:18:05.725Z,18
2022-10-17T06:20:12.834Z,19
2022-10-17T06:21:15.614Z,20
2022-10-17T06:23:21.833Z,21
2022-10-17T06:25:27.805Z,22
2022-10-17T06:27:34.762Z,24
2022-10-17T06:28:39.071Z,25
2022-10-17T06:30:44.724Z,25
2022-10-17T06:32:51.314Z,27
2022-10-17T06:34:59.259Z,29
2022-10-17T06:36:02.689Z,30
2022-10-17T06:38:08.649Z,33
2022-10-17T06:40:15.640Z,36
2022-10-17T06:42:21.284Z,38
2022-10-17T06:43:29.673Z,39
2022-10-17T06:44:32.876Z,41
2022-10-17T06:45:35.112Z,41
2022-10-17T06:47:41.138Z,43
2022-10-17T06:49:48.246Z,45
2022-10-17T06:50:51.997Z,46
2022-10-17T06:52:58.401Z,50
2022-10-17T06:57:11.103Z,54
2022-10-17T06:58:14.557Z,55
2022-10-17T07:00:19.523Z,57
2022-10-17T07:02:25.420Z,58
2022-10-17T07:03:29.097Z,62
2022-10-17T07:05:35.362Z,73
2022-10-17T07:07:52.341Z,77
2022-10-17T07:09:58.292Z,82
2022-10-17T07:11:01.291Z,79
2022-10-17T07:13:07.899Z,86
2022-10-17T07:15:14.320Z,85
2022-10-17T07:17:20.101Z,90
2022-10-17T07:18:23.441Z,90
2022-10-17T07:20:29.584Z,95
2022-10-17T07:21:40.950Z,98
2022-10-17T07:22:44.426Z,97
2022-10-17T07:24:51.435Z,87
2022-10-17T07:25:54.708Z,104
2022-10-17T07:28:00.480Z,135
2022-10-17T07:30:06.469Z,293
2022-10-17T07:31:09.502Z,381
2022-10-17T07:32:11.745Z,375
2022-10-17T07:33:14.735Z,361
2022-10-17T07:35:21.185Z,249
2022-10-17T07:36:24.323Z,274
2022-10-17T07:37:28.666Z,318
2022-10-17T07:38:32.976Z,320
2022-10-17T07:40:39.153Z,276
2022-10-17T07:42:45.701Z,310
2022-10-17T07:43:49.127Z,342
2022-10-17T07:45:55.380Z,386
2022-10-17T07:48:01.586Z,401
2022-10-17T07:50:06.793Z,450
2022-10-17T07:51:10.266Z,474
2022-10-17T07:53:16.438Z,495
2022-10-17T07:55:23.017Z,515
2022-10-17T07:57:29.015Z,530
2022-10-17T07:58:33.008Z,534
2022-10-17T08:00:40.357Z,531
2022-10-17T08:02:45.963Z,549
2022-10-17T08:04:51.913Z,576
2022-10-17T08:05:54.425Z,587
2022-10-17T08:07:30.206Z,581
2022-10-17T08:08:34.150Z,572
2022-10-17T08:09:38.170Z,567
2022-10-17T08:10:41.547Z,571
2022-10-17T08:12:48.103Z,584
2022-10-17T08:13:51.091Z,598
2022-10-17T08:14:53.875Z,620
2022-10-17T08:15:56.962Z,613
2022-10-17T08:18:03.174Z,627
2022-10-17T08:19:06.559Z,622
2022-10-17T08:20:10.218Z,623
2022-10-17T08:21:13.351Z,632
2022-10-17T08:23:19.006Z,636
2022-10-17T08:24:22.380Z,646
2022-10-17T08:25:26.395Z,662
2022-10-17T08:26:29.467Z,674
2022-10-17T08:28:36.387Z,695
2022-10-17T08:30:42.605Z,690
2022-10-17T08:32:06.531Z,712
2022-10-17T08:33:13.042Z,715
2022-10-17T08:34:16.683Z,722
2022-10-17T08:36:22.513Z,735
2022-10-17T08:38:42.905Z,779
2022-10-17T08:39:47.301Z,801
2022-10-17T08:40:51.080Z,718
2022-10-17T08:41:54.784Z,240
2022-10-17T08:42:58.433Z,846
2022-10-17T08:44:01.798Z,655
2022-10-17T08:45:05.235Z,770
2022-10-17T08:46:08.977Z,328
2022-10-17T08:47:11.821Z,189
2022-10-17T08:49:17.894Z,275
2022-10-17T08:50:21.067Z,457
2022-10-17T08:52:27.407Z,839
2022-10-17T08:54:34.731Z,796
2022-10-17T08:55:47.177Z,837
2022-10-17T08:56:52.046Z,851
2022-10-17T08:57:55.029Z,835
2022-10-17T09:00:01.000Z,899
2022-10-17T09:01:06.094Z,855
2022-10-17T09:03:14.634Z,834
2022-10-17T09:05:28.171Z,740
2022-10-17T09:06:31.626Z,457
2022-10-17T09:07:34.849Z,522
2022-10-17T09:08:37.863Z,399
2022-10-17T09:10:44.355Z,438
2022-10-17T09:11:48.099Z,345
2022-10-17T09:13:54.935Z,422
2022-10-17T09:16:01.833Z,375
2022-10-17T09:17:05.574Z,384
2022-10-17T09:19:10.965Z,465
2022-10-17T09:21:17.956Z,437
2022-10-17T09:22:21.137Z,442
2022-10-17T09:24:28.734Z,433
2022-10-17T09:26:34.984Z,535
2022-10-17T09:27:38.800Z,412
2022-10-17T09:29:46.551Z,557
2022-10-17T09:31:53.468Z,585
2022-10-17T09:32:56.632Z,559
2022-10-17T09:35:03.613Z,536
2022-10-17T09:36:07.057Z,512
2022-10-17T09:38:13.217Z,491
2022-10-17T09:40:19.116Z,683
2022-10-17T09:41:48.629Z,823
2022-10-17T09:42:51.754Z,849
2022-10-17T09:43:55.487Z,800
2022-10-17T09:46:02.794Z,752
2022-10-17T09:47:05.778Z,809
2022-10-17T09:48:08.298Z,819
2022-10-17T09:49:18.939Z,836
2022-10-17T09:51:28.350Z,408
2022-10-17T09:52:33.299Z,304
2022-10-17T09:54:39.581Z,596
2022-10-17T09:56:46.401Z,561
2022-10-17T09:57:49.559Z,582
2022-10-17T09:59:56.893Z,782
2022-10-17T10:02:02.614Z,543
2022-10-17T10:03:05.716Z,582
2022-10-17T10:05:11.326Z,560
2022-10-17T10:07:17.609Z,913
2022-10-17T10:09:24.538Z,644
2022-10-17T10:10:30.095Z,541
2022-10-17T10:12:36.238Z,314
2022-10-17T10:14:47.947Z,295
2022-10-17T10:16:54.546Z,340
2022-10-17T10:17:57.428Z,350
2022-10-17T10:20:05.878Z,580
2022-10-17T10:21:08.759Z,692
2022-10-17T10:22:12.476Z,762
2022-10-17T10:23:15.185Z,781
2022-10-17T10:25:22.032Z,736
2022-10-17T10:26:25.741Z,729
2022-10-17T10:28:32.109Z,795
2022-10-17T10:30:42.393Z,857
2022-10-17T10:31:46.156Z,898
2022-10-17T10:33:59.444Z,789
2022-10-17T10:35:02.862Z,705
2022-10-17T10:36:06.035Z,594
2022-10-17T10:38:20.334Z,487
2022-10-17T10:39:24.010Z,427
2022-10-17T10:41:30.058Z,431
2022-10-17T10:43:36.252Z,485
2022-10-17T10:44:39.960Z,518
2022-10-17T10:45:51.812Z,561
2022-10-17T10:46:55.856Z,425
2022-10-17T10:49:01.013Z,313
2022-10-17T10:51:08.001Z,261
2022-10-17T10:52:10.888Z,277
2022-10-17T10:54:16.728Z,322
2022-10-17T10:55:20.175Z,329
2022-10-17T10:56:23.592Z,301
2022-10-17T10:57:27.547Z,351
2022-10-17T10:59:35.017Z,440
2022-10-17T11:00:39.185Z,419
2022-10-17T11:02:46.578Z,579
2022-10-17T11:04:54.028Z,580
2022-10-17T11:05:57.216Z,520
2022-10-17T11:08:04.656Z,398
2022-10-17T11:10:10.963Z,322
2022-10-17T11:11:14.099Z,326
2022-10-17T11:13:20.603Z,228
2022-10-17T11:15:26.689Z,204
2022-10-17T11:16:30.301Z,203
2022-10-17T11:18:39.151Z,205
2022-10-17T11:20:44.557Z,227
2022-10-17T11:21:47.099Z,257
2022-10-17T11:23:52.966Z,333
2022-10-17T11:24:56.412Z,379
2022-10-17T11:27:02.281Z,527
2022-10-17T11:29:11.363Z,577
2022-10-17T11:31:17.234Z,520
2022-10-17T11:32:20.231Z,414
2022-10-17T11:34:28.233Z,374
2022-10-17T11:36:35.093Z,228
2022-10-17T11:37:41.349Z,205
2022-10-17T11:39:47.547Z,147
2022-10-17T11:40:50.262Z,131
2022-10-17T11:42:04.254Z,120
2022-10-17T11:43:07.950Z,109
2022-10-17T11:44:11.290Z,102
2022-10-17T11:46:17.959Z,94
2022-10-17T11:48:23.873Z,90
2022-10-17T11:52:03.839Z,91
2022-10-17T11:53:07.715Z,92
2022-10-17T11:54:10.706Z,92
2022-10-17T11:55:13.589Z,93
2022-10-17T11:57:20.399Z,97
2022-10-17T11:59:27.184Z,99
2022-10-17T12:00:30.364Z,99
2022-10-17T12:02:36.620Z,92
2022-10-17T12:04:51.709Z,85
2022-10-17T12:05:55.228Z,86
2022-10-17T12:08:01.686Z,116
2022-10-17T12:09:04.769Z,129
2022-10-17T12:11:10.882Z,151
2022-10-17T12:13:16.539Z,171
2022-10-17T12:14:19.906Z,179
2022-10-17T12:16:25.892Z,231
2022-10-17T12:18:34.737Z,317
2022-10-17T12:20:41.306Z,233
2022-10-17T12:21:45.634Z,200
2022-10-17T12:23:51.669Z,155
2022-10-17T12:26:06.677Z,131
2022-10-17T12:27:09.667Z,129
2022-10-17T12:29:16.615Z,140
2022-10-17T12:31:23.052Z,159
2022-10-17T12:33:05.516Z,167
2022-10-17T12:34:10.955Z,155
2022-10-17T12:35:14.021Z,143
2022-10-17T12:37:21.651Z,120
2022-10-17T12:39:28.046Z,98
2022-10-17T12:40:31.857Z,91
2022-10-17T12:41:34.434Z,90
2022-10-17T12:42:37.248Z,88
2022-10-17T12:43:47.192Z,85
2022-10-17T12:44:53.634Z,80
2022-10-17T12:45:56.376Z,77
2022-10-17T12:46:59.822Z,73
2022-10-17T12:48:03.416Z,68
2022-10-17T12:50:10.113Z,60
2022-10-17T12:51:39.620Z,60
2022-10-17T12:52:44.053Z,65
2022-10-17T12:53:46.646Z,67
2022-10-17T12:55:15.842Z,66
2022-10-17T12:56:18.549Z,63
2022-10-17T12:58:24.769Z,57
2022-10-17T13:00:30.525Z,48
2022-10-17T13:01:34.310Z,46
2022-10-17T13:03:41.099Z,38
2022-10-17T13:05:48.087Z,33
2022-10-17T13:06:51.559Z,32
2022-10-17T13:07:55.408Z,34
2022-10-17T13:09:06.888Z,36
2022-10-17T13:10:16.344Z,41
2022-10-17T13:11:19.417Z,45
2022-10-17T13:13:25.229Z,50
2022-10-17T13:15:31.443Z,60
2022-10-17T13:16:34.874Z,64
2022-10-17T13:17:45.403Z,68
2022-10-17T13:18:48.942Z,69
2022-10-17T13:20:54.815Z,78
2022-10-17T13:22:08.368Z,84
2022-10-17T13:23:11.838Z,88
2022-10-17T13:24:14.920Z,92
2022-10-17T13:26:21.434Z,83
2022-10-17T13:28:28.911Z,61
2022-10-17T13:29:32.265Z,59
2022-10-17T13:31:38.717Z,53
2022-10-17T13:33:45.756Z,45
2022-10-17T13:36:07.209Z,47
2022-10-17T13:37:10.282Z,48
2022-10-17T13:38:14.850Z,51
2022-10-17T13:40:31.105Z,50
2022-10-17T13:41:53.776Z,46
2022-10-17T13:43:59.389Z,55
2022-10-17T13:45:03.040Z,61
2022-10-17T13:46:41.162Z,65
2022-10-17T13:47:45.074Z,62
2022-10-17T13:48:48.760Z,58
2022-10-17T13:49:57.252Z,53
2022-10-17T13:51:12.501Z,48
2022-10-17T13:52:16.543Z,45
2022-10-17T13:54:24.043Z,50
2022-10-17T13:55:27.022Z,55
2022-10-17T13:57:36.843Z,61
2022-10-17T13:58:40.263Z,62
2022-10-17T13:59:42.800Z,63
2022-10-17T14:00:46.480Z,64
2022-10-17T14:02:53.331Z,68
2022-10-17T14:04:21.287Z,70
2022-10-17T14:05:25.876Z,66
2022-10-17T14:06:29.040Z,60
2022-10-17T14:08:25.155Z,52
2022-10-17T14:10:32.663Z,31
2022-10-17T14:11:35.739Z,26
2022-10-17T14:13:41.066Z,25
2022-10-17T14:15:14.436Z,26
2022-10-17T14:16:16.949Z,24
2022-10-17T14:17:20.043Z,20
2022-10-17T14:18:23.306Z,18
2022-10-17T14:19:26.613Z,21
2022-10-17T14:21:45.871Z,24
2022-10-17T14:23:24.735Z,20
2022-10-17T14:25:32.565Z,15
2022-10-17T14:27:39.367Z,12
2022-10-17T14:28:42.916Z,9
2022-10-17T14:29:46.600Z,8
2022-10-17T14:30:59.974Z,8
2022-10-17T14:33:05.860Z,7
2022-10-17T14:35:44.058Z,8
2022-10-17T14:37:51.426Z,12
2022-10-17T14:39:58.097Z,14
2022-10-17T14:41:46.511Z,13
2022-10-17T14:42:51.037Z,15
2022-10-17T14:43:54.764Z,16
2022-10-17T14:46:00.916Z,15
2022-10-17T14:47:47.209Z,16
2022-10-17T14:48:51.659Z,20
2022-10-17T14:50:58.410Z,22
2022-10-17T14:52:19.188Z,23
2022-10-17T14:53:22.279Z,24
2022-10-17T14:54:25.778Z,24
2022-10-17T14:56:33.496Z,24
2022-10-17T14:58:39.184Z,23
2022-10-17T14:59:57.967Z,20
2022-10-17T15:01:00.483Z,21
2022-10-17T15:02:03.538Z,19
2022-10-17T15:04:09.651Z,21
2022-10-17T15:05:15.136Z,22
2022-10-17T15:06:18.411Z,22
2022-10-17T15:07:21.531Z,20
2022-10-17T15:09:28.685Z,13
2022-10-17T15:10:31.209Z,12
2022-10-17T15:11:35.011Z,11
2022-10-17T15:12:38.477Z,13
2022-10-17T15:13:47.795Z,14
2022-10-17T15:14:51.282Z,16
2022-10-17T15:15:54.616Z,19
2022-10-17T15:16:58.652Z,23
2022-10-17T15:18:01.654Z,27
2022-10-17T15:20:08.337Z,28
2022-10-17T15:21:48.032Z,28
2022-10-17T15:22:51.055Z,24
2022-10-17T15:23:54.168Z,20
2022-10-17T15:24:57.365Z,18
2022-10-17T15:26:00.425Z,17
2022-10-17T15:28:07.706Z,15
2022-10-17T15:29:10.481Z,15
2022-10-17T15:30:22.302Z,14
2022-10-17T15:31:25.663Z,14
2022-10-17T15:33:31.315Z,15
2022-10-17T15:35:37.230Z,11
2022-10-17T15:36:40.196Z,11
2022-10-17T15:38:46.598Z,10
2022-10-17T15:40:53.205Z,9
2022-10-17T15:43:00.430Z,11
2022-10-17T15:44:04.189Z,11
2022-10-17T15:46:10.684Z,11
2022-10-17T15:48:16.072Z,11
2022-10-17T15:50:22.759Z,12
2022-10-17T15:51:25.475Z,12
2022-10-17T15:53:31.962Z,11
2022-10-17T15:55:38.839Z,9
2022-10-17T15:57:46.729Z,6
2022-10-17T15:58:50.488Z,5
2022-10-17T16:00:57.959Z,3
2022-10-17T16:03:04.357Z,3
2022-10-17T16:05:10.434Z,2
2022-10-17T16:06:16.866Z,2
2022-10-17T16:08:23.729Z,2
2022-10-17T16:10:31.533Z,1
2022-10-17T16:12:37.181Z,1
2022-10-17T16:13:40.185Z,1
2022-10-17T16:15:47.446Z,0
2022-10-17T16:17:53.508Z,0
2022-10-17T16:19:59.283Z,0
2022-10-17T16:21:02.346Z,0
2022-10-17T16:23:09.930Z,0
2022-10-17T16:25:16.818Z,0
2022-10-17T16:26:19.228Z,0
2022-10-17T16:27:22.377Z,0
2022-10-17T16:28:26.166Z,0
2022-10-17T16:30:32.910Z,0
2022-10-17T16:32:39.502Z,0
2022-10-17T16:33:42.483Z,0
2022-10-17T16:35:48.362Z,0
2022-10-17T16:37:54.227Z,0
2022-10-17T16:40:00.438Z,0
2022-10-17T16:41:03.893Z,0
2022-10-17T16:43:10.133Z,0
2022-10-17T16:45:16.433Z,0
2022-10-17T16:46:19.927Z,0
2022-10-17T16:47:22.836Z,0
2022-10-17T16:48:31.711Z,0
2022-10-17T16:49:34.418Z,0
2022-10-17T16:50:37.239Z,0
2022-10-17T16:52:43.711Z,0
2022-10-17T16:53:47.056Z,0
2022-10-17T16:55:53.284Z,0
2022-10-17T16:57:59.429Z,0
2022-10-17T17:00:06.530Z,0
2022-10-17T17:01:10.019Z,0
2022-10-17T17:02:22.471Z,0
2022-10-17T17:03:26.113Z,0
2022-10-17T17:05:31.895Z,0
2022-10-17T17:07:38.420Z,0
2022-10-17T17:08:41.057Z,0
2022-10-17T17:10:46.902Z,0
2022-10-17T17:12:53.440Z,0
2022-10-17T17:14:59.212Z,0
2022-10-17T17:16:02.403Z,0
2022-10-17T17:18:11.853Z,0
2022-10-17T17:20:19.118Z,0
2022-10-17T17:22:25.060Z,0
2022-10-17T17:23:27.849Z,0
2022-10-17T17:25:33.820Z,0
2022-10-17T17:27:40.395Z,0
2022-10-17T17:28:43.848Z,0
2022-10-17T17:29:46.957Z,0
2022-10-17T17:30:50.023Z,0
2022-10-17T17:32:55.554Z,0
2022-10-17T17:35:01.765Z,0
2022-10-17T17:36:04.765Z,0
2022-10-17T17:38:10.112Z,0
2022-10-17T17:40:16.681Z,0
2022-10-17T17:41:19.469Z,0
2022-10-17T17:42:22.931Z,0
2022-10-17T17:43:25.637Z,0
2022-10-17T17:45:32.416Z,0
2022-10-17T17:46:34.912Z,0
2022-10-17T17:47:38.214Z,0
2022-10-17T17:48:41.473Z,0
2022-10-17T17:50:49.318Z,0
2022-10-17T17:52:55.706Z,0
2022-10-17T17:53:59.480Z,0
2022-10-17T17:56:05.996Z,0
2022-10-17T17:58:10.925Z,0
2022-10-17T18:00:17.356Z,0
2022-10-17T18:01:20.539Z,0
2022-10-17T18:03:27.115Z,0
2022-10-17T18:05:33.781Z,0
2022-10-17T18:06:37.140Z,0
2022-10-17T18:07:39.752Z,0
2022-10-17T18:08:43.473Z,0
2022-10-17T18:10:49.720Z,0
2022-10-17T18:12:55.846Z,0
2022-10-17T18:13:58.622Z,0
2022-10-17T18:15:01.979Z,0
2022-10-17T18:16:04.766Z,0
2022-10-17T18:18:11.638Z,0
2022-10-17T18:20:18.067Z,0
2022-10-17T18:21:21.862Z,0
2022-10-17T18:23:28.147Z,0
2022-10-17T18:25:35.019Z,0
2022-10-17T18:27:40.668Z,0
2022-10-17T18:28:44.084Z,0
2022-10-17T18:30:49.986Z,0
2022-10-17T18:32:57.055Z,0
2022-10-17T18:35:03.208Z,0
2022-10-17T18:36:08.790Z,0
2022-10-17T18:38:15.632Z,0
2022-10-17T18:40:21.613Z,0
2022-10-17T18:42:27.109Z,0
2022-10-17T18:43:29.723Z,0
2022-10-17T18:45:36.111Z,0
2022-10-17T18:47:42.362Z,0
2022-10-17T18:48:45.346Z,0
2022-10-17T18:50:52.162Z,0
2022-10-17T18:52:59.024Z,0
2022-10-17T18:55:05.706Z,0
2022-10-17T18:56:08.694Z,0
2022-10-17T18:58:14.888Z,0
2022-10-17T19:00:20.427Z,0
2022-10-17T19:02:26.902Z,0
2022-10-17T19:03:29.689Z,0
2022-10-17T19:05:35.633Z,0
2022-10-17T19:07:42.558Z,0
2022-10-17T19:08:45.781Z,0
2022-10-17T19:09:48.881Z,0
2022-10-17T19:10:51.935Z,0
2022-10-17T19:12:59.066Z,0
2022-10-17T19:14:01.397Z,0
2022-10-17T19:15:04.190Z,0
2022-10-17T19:16:07.257Z,0
2022-10-17T19:18:12.478Z,0
2022-10-17T19:19:15.272Z,0
2022-10-17T19:21:24.471Z,0
2022-10-17T19:23:30.578Z,0
2022-10-17T19:25:37.255Z,0
2022-10-17T19:26:40.056Z,0
2022-10-17T19:28:46.154Z,0
2022-10-17T19:30:52.464Z,0
2022-10-17T19:32:58.149Z,0
2022-10-17T19:34:01.513Z,0
2022-10-17T19:36:07.403Z,0
2022-10-17T19:38:14.122Z,0
2022-10-17T19:40:20.359Z,0
2022-10-17T19:41:23.441Z,0
2022-10-17T19:43:30.091Z,0
2022-10-17T19:45:37.222Z,0
2022-10-17T19:47:43.181Z,0
2022-10-17T19:48:46.056Z,0
2022-10-17T19:50:54.800Z,0
2022-10-17T19:53:00.452Z,0
2022-10-17T19:55:06.478Z,0
2022-10-17T19:56:09.908Z,0
2022-10-17T19:58:17.181Z,0
2022-10-17T20:00:23.374Z,0
2022-10-17T20:01:26.842Z,0
2022-10-17T20:02:32.285Z,0
2022-10-17T20:03:35.826Z,0
2022-10-17T20:05:27.977Z,0
2022-10-17T20:06:31.195Z,0
2022-10-17T20:08:37.865Z,0
2022-10-17T20:10:43.983Z,0
2022-10-17T20:12:51.369Z,0
2022-10-17T20:13:53.805Z,0
2022-10-17T20:16:00.295Z,0
2022-10-17T20:18:06.606Z,0
2022-10-17T20:20:14.413Z,0
2022-10-17T20:21:18.123Z,0
2022-10-17T20:23:24.132Z,0
2022-10-17T20:25:29.958Z,0
2022-10-17T20:26:41.920Z,0
2022-10-17T20:27:45.071Z,0
2022-10-17T20:28:49.284Z,0
2022-10-17T20:30:54.178Z,0
2022-10-17T20:32:59.967Z,0
2022-10-17T20:34:03.045Z,0
2022-10-17T20:36:09.036Z,0
2022-10-17T20:38:14.159Z,0
2022-10-17T20:40:38.102Z,0
2022-10-17T20:42:45.235Z,0
2022-10-17T20:43:49.010Z,0
2022-10-17T20:47:02.445Z,0
2022-10-17T20:48:18.877Z,0
2022-10-17T20:50:24.498Z,0
2022-10-17T20:51:28.150Z,0
2022-10-17T20:53:39.656Z,0
2022-10-17T20:55:46.191Z,0
2022-10-17T20:57:52.825Z,0
2022-10-17T20:58:56.279Z,0
2022-10-17T21:01:02.797Z,0
2022-10-17T21:03:09.017Z,0
2022-10-17T21:04:48.934Z,0
2022-10-17T21:05:52.243Z,0
2022-10-17T21:07:59.205Z,0
2022-10-17T21:09:02.552Z,0
2022-10-17T21:10:37.136Z,0
2022-10-17T21:11:40.182Z,0
2022-10-17T21:12:57.540Z,0
2022-10-17T21:14:01.760Z,0
2022-10-17T21:16:07.689Z,0
2022-10-17T21:18:14.091Z,0
2022-10-17T21:19:17.281Z,0
2022-10-17T21:21:23.181Z,0
2022-10-17T21:23:28.722Z,0
2022-10-17T21:25:34.980Z,0
2022-10-17T21:26:38.345Z,0
2022-10-17T21:28:44.661Z,0
2022-10-17T21:30:51.303Z,0
2022-10-17T21:33:00.148Z,0
2022-10-17T21:34:02.662Z,0
2022-10-17T21:36:08.190Z,0
2022-10-17T21:38:14.875Z,0
2022-10-17T21:40:21.428Z,0
2022-10-17T21:41:24.696Z,0
2022-10-17T21:43:31.261Z,0
2022-10-17T21:45:37.863Z,0
2022-10-17T21:48:15.125Z,0
2022-10-17T21:50:20.789Z,0
2022-10-17T21:51:24.244Z,0
2022-10-17T21:53:30.738Z,0
2022-10-17T21:55:36.046Z,0
2022-10-17T21:57:42.164Z,0
2022-10-17T21:58:46.213Z,0
2022-10-17T22:00:52.777Z,0
2022-10-17T22:02:59.995Z,0
2022-10-17T22:05:05.724Z,0
2022-10-17T22:06:43.056Z,0
2022-10-17T22:07:46.078Z,0
2022-10-17T22:08:48.882Z,0
2022-10-17T22:10:54.395Z,0
2022-10-17T22:12:59.897Z,0
2022-10-17T22:14:03.123Z,0
2022-10-17T22:16:09.876Z,0
2022-10-17T22:18:15.284Z,0
2022-10-17T22:19:18.441Z,0
2022-10-17T22:20:21.433Z,0
2022-10-17T22:21:24.532Z,0
2022-10-17T22:23:30.953Z,0
2022-10-17T22:24:34.381Z,0
2022-10-17T22:25:36.906Z,0
2022-10-17T22:26:39.898Z,0
2022-10-17T22:28:45.026Z,0
2022-10-17T22:29:48.496Z,0
2022-10-17T22:30:51.284Z,0
2022-10-17T22:31:54.729Z,0
2022-10-17T22:34:01.328Z,0
2022-10-17T22:36:07.645Z,0
2022-10-17T22:37:10.718Z,0
2022-10-17T22:39:16.931Z,0
2022-10-17T22:41:22.616Z,0
2022-10-17T22:43:28.477Z,0
2022-10-17T22:44:31.934Z,0
2022-10-17T22:46:37.606Z,0
2022-10-17T22:48:45.012Z,0
2022-10-17T22:50:50.818Z,0
2022-10-17T22:51:53.245Z,0
2022-10-17T22:53:58.754Z,0
2022-10-17T22:56:03.694Z,0
2022-10-17T22:58:09.065Z,0
2022-10-17T22:59:12.313Z,0
2022-10-17T23:01:20.123Z,0
2022-10-17T23:03:26.205Z,0
2022-10-17T23:05:32.954Z,0
2022-10-17T23:06:36.404Z,0
2022-10-17T23:08:41.655Z,0
2022-10-17T23:10:48.079Z,0
2022-10-17T23:12:53.758Z,0
2022-10-17T23:13:57.103Z,0
2022-10-17T23:16:03.427Z,0
2022-10-17T23:18:09.208Z,0
2022-10-17T23:20:15.860Z,0
2022-10-17T23:21:19.128Z,0
2022-10-17T23:23:25.446Z,0
2022-10-17T23:25:30.940Z,0
2022-10-17T23:27:38.018Z,0
2022-10-17T23:28:41.176Z,0
2022-10-17T23:30:47.410Z,0
2022-10-17T23:32:53.663Z,0
2022-10-17T23:35:00.530Z,0
2022-10-17T23:36:04.287Z,0
2022-10-17T23:38:10.159Z,0
2022-10-17T23:40:16.037Z,0
2022-10-17T23:42:21.977Z,0
2022-10-17T23:43:24.408Z,0
2022-10-17T23:47:45.167Z,0
2022-10-17T23:49:51.226Z,0
2022-10-17T23:50:55.015Z,0
2022-10-17T23:51:58.171Z,0
2022-10-17T23:53:00.688Z,0